sensor_id;sensor_type;location;lat;lon;timestamp;temperature;humidity
68433;DHT22;55412;51.350;17.056;2022-12-20T00:01:13;1.30;86.80
68433;DHT22;55412;51.350;17.056;2022-12-20T00:03:42;1.30;86.70
68433;DHT22;55412;51.350;17.056;2022-12-20T00:06:12;1.30;86.40
68433;DHT22;55412;51.350;17.056;2022-12-20T00:08:39;1.40;86.30
68433;DHT22;55412;51.350;17.056;2022-12-20T00:11:07;1.40;86.20
68433;DHT22;55412;51.350;17.056;2022-12-20T00:13:34;1.40;86.10
68433;DHT22;55412;51.350;17.056;2022-12-20T00:16:10;1.40;85.90
68433;DHT22;55412;51.350;17.056;2022-12-20T00:18:39;1.40;85.60
68433;DHT22;55412;51.350;17.056;2022-12-20T00:21:08;1.40;85.50
68433;DHT22;55412;51.350;17.056;2022-12-20T00:23:37;1.50;85.20
68433;DHT22;55412;51.350;17.056;2022-12-20T00:26:06;1.50;84.70
68433;DHT22;55412;51.350;17.056;2022-12-20T00:28:35;1.50;84.30
68433;DHT22;55412;51.350;17.056;2022-12-20T00:31:02;1.50;84.00
68433;DHT22;55412;51.350;17.056;2022-12-20T00:33:29;1.60;83.60
68433;DHT22;55412;51.350;17.056;2022-12-20T00:35:55;1.50;83.40
68433;DHT22;55412;51.350;17.056;2022-12-20T00:38:23;1.50;83.20
68433;DHT22;55412;51.350;17.056;2022-12-20T00:41:04;1.50;82.90
68433;DHT22;55412;51.350;17.056;2022-12-20T00:43:32;1.50;83.00
68433;DHT22;55412;51.350;17.056;2022-12-20T00:45:59;1.50;82.70
68433;DHT22;55412;51.350;17.056;2022-12-20T00:48:26;1.60;82.50
68433;DHT22;55412;51.350;17.056;2022-12-20T00:51:05;1.60;82.20
68433;DHT22;55412;51.350;17.056;2022-12-20T00:53:33;1.60;82.00
68433;DHT22;55412;51.350;17.056;2022-12-20T00:56:00;1.60;81.60
68433;DHT22;55412;51.350;17.056;2022-12-20T00:58:27;1.60;81.50
68433;DHT22;55412;51.350;17.056;2022-12-20T01:00:54;1.60;81.30
68433;DHT22;55412;51.350;17.056;2022-12-20T01:03:20;1.60;81.10
68433;DHT22;55412;51.350;17.056;2022-12-20T01:05:54;1.60;81.10
68433;DHT22;55412;51.350;17.056;2022-12-20T01:08:21;1.60;80.90
68433;DHT22;55412;51.350;17.056;2022-12-20T01:10:58;1.60;80.70
68433;DHT22;55412;51.350;17.056;2022-12-20T01:13:29;1.60;80.20
68433;DHT22;55412;51.350;17.056;2022-12-20T01:16:05;1.70;80.00
68433;DHT22;55412;51.350;17.056;2022-12-20T01:18:33;1.70;79.70
68433;DHT22;55412;51.350;17.056;2022-12-20T01:21:05;1.70;79.40
68433;DHT22;55412;51.350;17.056;2022-12-20T01:23:32;1.80;79.20
68433;DHT22;55412;51.350;17.056;2022-12-20T01:26:00;1.80;78.90
68433;DHT22;55412;51.350;17.056;2022-12-20T01:28:29;1.80;78.50
68433;DHT22;55412;51.350;17.056;2022-12-20T01:30:56;1.80;78.30
68433;DHT22;55412;51.350;17.056;2022-12-20T01:33:22;1.90;77.80
68433;DHT22;55412;51.350;17.056;2022-12-20T01:35:59;1.90;77.90
68433;DHT22;55412;51.350;17.056;2022-12-20T01:38:27;1.90;77.60
68433;DHT22;55412;51.350;17.056;2022-12-20T01:40:54;1.90;77.50
68433;DHT22;55412;51.350;17.056;2022-12-20T01:43:23;1.90;77.50
68433;DHT22;55412;51.350;17.056;2022-12-20T01:45:50;1.90;77.30
68433;DHT22;55412;51.350;17.056;2022-12-20T01:48:20;1.90;77.10
68433;DHT22;55412;51.350;17.056;2022-12-20T01:50:49;1.90;77.20
68433;DHT22;55412;51.350;17.056;2022-12-20T01:53:18;1.90;76.90
68433;DHT22;55412;51.350;17.056;2022-12-20T01:55:46;1.80;76.90
68433;DHT22;55412;51.350;17.056;2022-12-20T01:58:13;1.80;76.90
68433;DHT22;55412;51.350;17.056;2022-12-20T02:00:41;1.80;76.70
68433;DHT22;55412;51.350;17.056;2022-12-20T02:03:11;1.80;76.50
68433;DHT22;55412;51.350;17.056;2022-12-20T02:05:41;1.80;76.30
68433;DHT22;55412;51.350;17.056;2022-12-20T02:08:11;1.80;76.30
68433;DHT22;55412;51.350;17.056;2022-12-20T02:32:27;1.80;74.70
68433;DHT22;55412;51.350;17.056;2022-12-20T02:34:57;1.80;74.60
68433;DHT22;55412;51.350;17.056;2022-12-20T02:37:23;1.80;74.40
68433;DHT22;55412;51.350;17.056;2022-12-20T02:39:49;1.80;74.40
68433;DHT22;55412;51.350;17.056;2022-12-20T02:42:19;1.80;74.10
68433;DHT22;55412;51.350;17.056;2022-12-20T02:44:51;1.80;74.00
68433;DHT22;55412;51.350;17.056;2022-12-20T02:48:15;1.80;73.80
68433;DHT22;55412;51.350;17.056;2022-12-20T02:50:48;1.80;73.90
68433;DHT22;55412;51.350;17.056;2022-12-20T02:53:17;1.80;73.50
68433;DHT22;55412;51.350;17.056;2022-12-20T03:01:31;1.80;73.00
68433;DHT22;55412;51.350;17.056;2022-12-20T03:04:00;1.90;72.90
68433;DHT22;55412;51.350;17.056;2022-12-20T03:06:26;1.80;72.80
68433;DHT22;55412;51.350;17.056;2022-12-20T03:08:54;1.80;72.50
68433;DHT22;55412;51.350;17.056;2022-12-20T03:11:20;1.80;72.60
68433;DHT22;55412;51.350;17.056;2022-12-20T03:13:46;1.80;72.70
68433;DHT22;55412;51.350;17.056;2022-12-20T03:16:12;1.80;72.50
68433;DHT22;55412;51.350;17.056;2022-12-20T03:18:38;1.80;72.50
68433;DHT22;55412;51.350;17.056;2022-12-20T03:21:04;1.80;72.50
68433;DHT22;55412;51.350;17.056;2022-12-20T03:23:30;1.80;72.50
68433;DHT22;55412;51.350;17.056;2022-12-20T03:25:57;1.80;72.60
68433;DHT22;55412;51.350;17.056;2022-12-20T03:28:23;1.80;72.60
68433;DHT22;55412;51.350;17.056;2022-12-20T03:30:49;1.80;71.90
68433;DHT22;55412;51.350;17.056;2022-12-20T03:33:15;1.80;72.00
68433;DHT22;55412;51.350;17.056;2022-12-20T03:35:41;1.80;72.10
68433;DHT22;55412;51.350;17.056;2022-12-20T03:38:07;1.80;71.70
68433;DHT22;55412;51.350;17.056;2022-12-20T03:40:33;1.90;71.60
68433;DHT22;55412;51.350;17.056;2022-12-20T03:42:59;1.90;71.70
68433;DHT22;55412;51.350;17.056;2022-12-20T03:45:25;1.90;71.60
68433;DHT22;55412;51.350;17.056;2022-12-20T03:47:51;1.90;71.20
68433;DHT22;55412;51.350;17.056;2022-12-20T03:50:17;1.90;71.00
68433;DHT22;55412;51.350;17.056;2022-12-20T03:52:43;1.90;70.90
68433;DHT22;55412;51.350;17.056;2022-12-20T03:55:09;2.00;70.80
68433;DHT22;55412;51.350;17.056;2022-12-20T03:57:37;1.90;71.00
68433;DHT22;55412;51.350;17.056;2022-12-20T04:00:05;2.00;71.00
68433;DHT22;55412;51.350;17.056;2022-12-20T04:02:31;2.00;71.20
68433;DHT22;55412;51.350;17.056;2022-12-20T04:04:57;1.90;71.00
68433;DHT22;55412;51.350;17.056;2022-12-20T04:07:23;1.90;71.10
68433;DHT22;55412;51.350;17.056;2022-12-20T04:09:49;1.90;71.00
68433;DHT22;55412;51.350;17.056;2022-12-20T04:12:15;1.90;70.90
68433;DHT22;55412;51.350;17.056;2022-12-20T04:14:41;2.00;70.70
68433;DHT22;55412;51.350;17.056;2022-12-20T04:17:07;2.00;70.70
68433;DHT22;55412;51.350;17.056;2022-12-20T04:19:33;2.00;70.40
68433;DHT22;55412;51.350;17.056;2022-12-20T04:21:59;2.00;70.40
68433;DHT22;55412;51.350;17.056;2022-12-20T04:24:25;2.00;70.50
68433;DHT22;55412;51.350;17.056;2022-12-20T04:26:51;1.90;70.60
68433;DHT22;55412;51.350;17.056;2022-12-20T04:29:17;1.90;70.60
68433;DHT22;55412;51.350;17.056;2022-12-20T04:31:43;1.90;70.70
68433;DHT22;55412;51.350;17.056;2022-12-20T04:34:09;2.00;70.50
68433;DHT22;55412;51.350;17.056;2022-12-20T04:36:35;2.00;70.80
68433;DHT22;55412;51.350;17.056;2022-12-20T04:39:01;2.00;70.80
68433;DHT22;55412;51.350;17.056;2022-12-20T04:41:27;2.00;70.60
68433;DHT22;55412;51.350;17.056;2022-12-20T04:43:55;2.10;70.60
68433;DHT22;55412;51.350;17.056;2022-12-20T04:46:23;2.10;70.50
68433;DHT22;55412;51.350;17.056;2022-12-20T04:48:50;2.10;70.40
68433;DHT22;55412;51.350;17.056;2022-12-20T04:51:17;2.10;70.20
68433;DHT22;55412;51.350;17.056;2022-12-20T04:53:44;2.10;70.20
68433;DHT22;55412;51.350;17.056;2022-12-20T04:56:18;2.10;70.00
68433;DHT22;55412;51.350;17.056;2022-12-20T04:58:48;2.10;70.10
68433;DHT22;55412;51.350;17.056;2022-12-20T05:01:16;2.10;70.00
68433;DHT22;55412;51.350;17.056;2022-12-20T05:03:42;2.10;70.30
68433;DHT22;55412;51.350;17.056;2022-12-20T05:06:09;2.10;70.20
68433;DHT22;55412;51.350;17.056;2022-12-20T05:08:35;2.20;70.50
68433;DHT22;55412;51.350;17.056;2022-12-20T05:11:02;2.20;70.40
68433;DHT22;55412;51.350;17.056;2022-12-20T05:13:29;2.20;70.60
68433;DHT22;55412;51.350;17.056;2022-12-20T05:15:56;2.20;70.50
68433;DHT22;55412;51.350;17.056;2022-12-20T05:18:24;2.20;70.40
68433;DHT22;55412;51.350;17.056;2022-12-20T05:20:54;2.20;70.50
68433;DHT22;55412;51.350;17.056;2022-12-20T05:23:39;2.20;70.20
68433;DHT22;55412;51.350;17.056;2022-12-20T05:26:25;2.20;70.30
68433;DHT22;55412;51.350;17.056;2022-12-20T05:28:54;2.20;70.40
68433;DHT22;55412;51.350;17.056;2022-12-20T05:31:20;2.20;70.80
68433;DHT22;55412;51.350;17.056;2022-12-20T05:33:46;2.10;70.80
68433;DHT22;55412;51.350;17.056;2022-12-20T05:36:12;2.10;70.90
68433;DHT22;55412;51.350;17.056;2022-12-20T05:38:38;2.10;70.90
68433;DHT22;55412;51.350;17.056;2022-12-20T05:41:04;2.10;71.30
68433;DHT22;55412;51.350;17.056;2022-12-20T05:43:31;2.10;71.60
68433;DHT22;55412;51.350;17.056;2022-12-20T05:45:57;2.00;71.60
68433;DHT22;55412;51.350;17.056;2022-12-20T05:48:23;2.00;71.60
68433;DHT22;55412;51.350;17.056;2022-12-20T05:50:49;2.00;71.70
68433;DHT22;55412;51.350;17.056;2022-12-20T05:53:16;2.10;71.40
68433;DHT22;55412;51.350;17.056;2022-12-20T05:55:50;2.10;71.50
68433;DHT22;55412;51.350;17.056;2022-12-20T05:58:17;2.20;71.50
68433;DHT22;55412;51.350;17.056;2022-12-20T06:00:44;2.20;71.40
68433;DHT22;55412;51.350;17.056;2022-12-20T06:03:12;2.20;71.10
68433;DHT22;55412;51.350;17.056;2022-12-20T06:05:40;2.20;70.90
68433;DHT22;55412;51.350;17.056;2022-12-20T06:08:08;2.30;71.00
68433;DHT22;55412;51.350;17.056;2022-12-20T06:10:35;2.30;71.00
68433;DHT22;55412;51.350;17.056;2022-12-20T06:13:01;2.30;70.90
68433;DHT22;55412;51.350;17.056;2022-12-20T06:15:28;2.30;71.00
68433;DHT22;55412;51.350;17.056;2022-12-20T06:17:55;2.30;70.90
68433;DHT22;55412;51.350;17.056;2022-12-20T06:20:21;2.30;71.20
68433;DHT22;55412;51.350;17.056;2022-12-20T06:22:48;2.30;71.20
68433;DHT22;55412;51.350;17.056;2022-12-20T06:25:14;2.30;71.40
68433;DHT22;55412;51.350;17.056;2022-12-20T06:27:41;2.30;71.30
68433;DHT22;55412;51.350;17.056;2022-12-20T06:30:08;2.30;71.20
68433;DHT22;55412;51.350;17.056;2022-12-20T06:32:35;2.20;71.20
68433;DHT22;55412;51.350;17.056;2022-12-20T06:35:01;2.20;71.40
68433;DHT22;55412;51.350;17.056;2022-12-20T06:37:27;2.20;71.50
68433;DHT22;55412;51.350;17.056;2022-12-20T06:39:53;2.20;71.70
68433;DHT22;55412;51.350;17.056;2022-12-20T06:42:19;2.20;71.70
68433;DHT22;55412;51.350;17.056;2022-12-20T06:44:45;2.20;71.80
68433;DHT22;55412;51.350;17.056;2022-12-20T06:47:11;2.20;71.90
68433;DHT22;55412;51.350;17.056;2022-12-20T06:49:37;2.30;72.20
68433;DHT22;55412;51.350;17.056;2022-12-20T06:52:04;2.30;72.00
68433;DHT22;55412;51.350;17.056;2022-12-20T06:54:30;2.30;71.70
68433;DHT22;55412;51.350;17.056;2022-12-20T06:56:56;2.40;72.00
68433;DHT22;55412;51.350;17.056;2022-12-20T06:59:22;2.40;71.80
68433;DHT22;55412;51.350;17.056;2022-12-20T07:01:48;2.40;71.90
68433;DHT22;55412;51.350;17.056;2022-12-20T07:04:14;2.40;71.90
68433;DHT22;55412;51.350;17.056;2022-12-20T07:06:40;2.50;71.90
68433;DHT22;55412;51.350;17.056;2022-12-20T07:09:06;2.50;72.10
68433;DHT22;55412;51.350;17.056;2022-12-20T07:11:33;2.50;72.20
68433;DHT22;55412;51.350;17.056;2022-12-20T07:13:59;2.50;71.80
68433;DHT22;55412;51.350;17.056;2022-12-20T07:16:25;2.50;71.80
68433;DHT22;55412;51.350;17.056;2022-12-20T07:18:52;2.50;71.80
68433;DHT22;55412;51.350;17.056;2022-12-20T07:21:19;2.60;72.10
68433;DHT22;55412;51.350;17.056;2022-12-20T07:23:46;2.60;72.00
68433;DHT22;55412;51.350;17.056;2022-12-20T07:26:12;2.60;71.90
68433;DHT22;55412;51.350;17.056;2022-12-20T07:28:40;2.60;71.80
68433;DHT22;55412;51.350;17.056;2022-12-20T07:31:06;2.60;71.70
68433;DHT22;55412;51.350;17.056;2022-12-20T07:33:32;2.70;71.80
68433;DHT22;55412;51.350;17.056;2022-12-20T07:36:07;2.70;71.70
68433;DHT22;55412;51.350;17.056;2022-12-20T07:38:37;2.60;71.70
68433;DHT22;55412;51.350;17.056;2022-12-20T07:41:14;2.60;71.70
68433;DHT22;55412;51.350;17.056;2022-12-20T07:43:41;2.60;71.40
68433;DHT22;55412;51.350;17.056;2022-12-20T07:46:08;2.60;71.50
68433;DHT22;55412;51.350;17.056;2022-12-20T07:48:36;2.60;71.50
68433;DHT22;55412;51.350;17.056;2022-12-20T07:51:17;2.60;71.90
68433;DHT22;55412;51.350;17.056;2022-12-20T07:53:52;2.70;71.80
68433;DHT22;55412;51.350;17.056;2022-12-20T07:56:22;2.70;71.70
68433;DHT22;55412;51.350;17.056;2022-12-20T07:58:50;2.70;71.60
68433;DHT22;55412;51.350;17.056;2022-12-20T08:01:20;2.60;71.60
68433;DHT22;55412;51.350;17.056;2022-12-20T08:03:49;2.60;71.70
68433;DHT22;55412;51.350;17.056;2022-12-20T08:06:17;2.60;71.90
68433;DHT22;55412;51.350;17.056;2022-12-20T08:08:51;2.60;72.00
68433;DHT22;55412;51.350;17.056;2022-12-20T08:11:21;2.60;72.10
68433;DHT22;55412;51.350;17.056;2022-12-20T08:13:49;2.60;71.50
68433;DHT22;55412;51.350;17.056;2022-12-20T08:16:15;2.50;71.40
68433;DHT22;55412;51.350;17.056;2022-12-20T08:18:41;2.40;71.40
68433;DHT22;55412;51.350;17.056;2022-12-20T08:21:07;2.40;71.60
68433;DHT22;55412;51.350;17.056;2022-12-20T08:23:35;2.40;72.10
68433;DHT22;55412;51.350;17.056;2022-12-20T08:26:01;2.40;71.90
68433;DHT22;55412;51.350;17.056;2022-12-20T08:28:27;2.40;72.00
68433;DHT22;55412;51.350;17.056;2022-12-20T08:31:02;2.40;71.70
68433;DHT22;55412;51.350;17.056;2022-12-20T08:33:30;2.40;71.90
68433;DHT22;55412;51.350;17.056;2022-12-20T08:36:02;2.40;72.00
68433;DHT22;55412;51.350;17.056;2022-12-20T08:38:31;2.40;72.00
68433;DHT22;55412;51.350;17.056;2022-12-20T08:41:11;2.50;71.80
68433;DHT22;55412;51.350;17.056;2022-12-20T08:43:39;2.50;71.60
68433;DHT22;55412;51.350;17.056;2022-12-20T08:46:08;2.60;71.60
68433;DHT22;55412;51.350;17.056;2022-12-20T08:48:34;2.60;71.40
68433;DHT22;55412;51.350;17.056;2022-12-20T08:51:04;2.70;71.20
68433;DHT22;55412;51.350;17.056;2022-12-20T08:53:33;2.70;70.90
68433;DHT22;55412;51.350;17.056;2022-12-20T08:56:11;2.80;71.10
68433;DHT22;55412;51.350;17.056;2022-12-20T08:58:40;2.80;71.10
68433;DHT22;55412;51.350;17.056;2022-12-20T09:01:10;2.80;71.50
68433;DHT22;55412;51.350;17.056;2022-12-20T09:03:39;2.80;71.30
68433;DHT22;55412;51.350;17.056;2022-12-20T09:06:08;2.90;71.20
68433;DHT22;55412;51.350;17.056;2022-12-20T09:08:38;2.90;71.20
68433;DHT22;55412;51.350;17.056;2022-12-20T09:11:10;2.80;71.60
68433;DHT22;55412;51.350;17.056;2022-12-20T09:13:42;2.80;72.00
68433;DHT22;55412;51.350;17.056;2022-12-20T09:16:11;2.80;71.80
68433;DHT22;55412;51.350;17.056;2022-12-20T09:18:38;2.90;71.90
68433;DHT22;55412;51.350;17.056;2022-12-20T09:21:06;2.90;71.80
68433;DHT22;55412;51.350;17.056;2022-12-20T09:23:33;2.90;72.30
68433;DHT22;55412;51.350;17.056;2022-12-20T09:26:01;2.90;72.20
68433;DHT22;55412;51.350;17.056;2022-12-20T09:28:29;3.00;71.70
68433;DHT22;55412;51.350;17.056;2022-12-20T09:30:59;3.10;71.50
68433;DHT22;55412;51.350;17.056;2022-12-20T09:33:27;3.10;71.80
68433;DHT22;55412;51.350;17.056;2022-12-20T09:35:55;3.20;71.30
68433;DHT22;55412;51.350;17.056;2022-12-20T09:38:22;3.30;71.00
68433;DHT22;55412;51.350;17.056;2022-12-20T09:40:54;3.40;70.80
68433;DHT22;55412;51.350;17.056;2022-12-20T09:43:22;3.40;70.30
68433;DHT22;55412;51.350;17.056;2022-12-20T09:45:54;3.40;69.90
68433;DHT22;55412;51.350;17.056;2022-12-20T09:48:25;3.40;70.10
68433;DHT22;55412;51.350;17.056;2022-12-20T09:57:02;3.60;69.90
68433;DHT22;55412;51.350;17.056;2022-12-20T09:59:38;3.60;70.10
68433;DHT22;55412;51.350;17.056;2022-12-20T10:02:19;3.70;69.90
68433;DHT22;55412;51.350;17.056;2022-12-20T10:04:46;3.80;69.20
68433;DHT22;55412;51.350;17.056;2022-12-20T10:07:40;3.80;68.90
68433;DHT22;55412;51.350;17.056;2022-12-20T10:24:50;3.80;69.80
68433;DHT22;55412;51.350;17.056;2022-12-20T10:27:21;3.80;69.50
68433;DHT22;55412;51.350;17.056;2022-12-20T10:29:48;3.90;69.20
68433;DHT22;55412;51.350;17.056;2022-12-20T10:32:18;3.90;69.20
68433;DHT22;55412;51.350;17.056;2022-12-20T10:37:35;4.00;68.90
68433;DHT22;55412;51.350;17.056;2022-12-20T10:40:03;4.00;69.10
68433;DHT22;55412;51.350;17.056;2022-12-20T10:42:38;4.00;69.00
68433;DHT22;55412;51.350;17.056;2022-12-20T10:47:44;3.90;69.30
68433;DHT22;55412;51.350;17.056;2022-12-20T10:50:17;4.00;69.00
68433;DHT22;55412;51.350;17.056;2022-12-20T10:53:00;3.90;69.20
68433;DHT22;55412;51.350;17.056;2022-12-20T10:55:48;4.00;68.70
68433;DHT22;55412;51.350;17.056;2022-12-20T10:58:35;3.90;69.20
68433;DHT22;55412;51.350;17.056;2022-12-20T11:04:02;3.80;70.10
68433;DHT22;55412;51.350;17.056;2022-12-20T11:06:40;3.80;70.00
68433;DHT22;55412;51.350;17.056;2022-12-20T11:09:27;3.70;70.10
68433;DHT22;55412;51.350;17.056;2022-12-20T11:12:12;3.70;70.30
68433;DHT22;55412;51.350;17.056;2022-12-20T11:14:44;3.70;70.70
68433;DHT22;55412;51.350;17.056;2022-12-20T11:37:41;3.60;70.60
68433;DHT22;55412;51.350;17.056;2022-12-20T11:40:35;3.70;70.70
68433;DHT22;55412;51.350;17.056;2022-12-20T11:43:55;3.70;70.60
68433;DHT22;55412;51.350;17.056;2022-12-20T11:46:48;3.80;70.60
68433;DHT22;55412;51.350;17.056;2022-12-20T11:52:47;4.00;70.40
68433;DHT22;55412;51.350;17.056;2022-12-20T11:55:34;4.00;69.80
68433;DHT22;55412;51.350;17.056;2022-12-20T12:00:38;4.20;69.60
68433;DHT22;55412;51.350;17.056;2022-12-20T12:03:35;4.20;69.50
68433;DHT22;55412;51.350;17.056;2022-12-20T12:06:18;4.30;69.10
68433;DHT22;55412;51.350;17.056;2022-12-20T12:12:01;4.50;69.20
68433;DHT22;55412;51.350;17.056;2022-12-20T12:26:37;4.90;67.30
68433;DHT22;55412;51.350;17.056;2022-12-20T12:31:44;4.90;67.40
68433;DHT22;55412;51.350;17.056;2022-12-20T12:43:36;4.80;66.90
68433;DHT22;55412;51.350;17.056;2022-12-20T12:46:16;4.70;66.80
68433;DHT22;55412;51.350;17.056;2022-12-20T12:51:29;4.80;67.00
68433;DHT22;55412;51.350;17.056;2022-12-20T12:54:17;4.80;66.60
68433;DHT22;55412;51.350;17.056;2022-12-20T12:56:48;4.80;66.60
68433;DHT22;55412;51.350;17.056;2022-12-20T12:59:43;4.80;66.60
68433;DHT22;55412;51.350;17.056;2022-12-20T13:13:00;4.70;67.10
68433;DHT22;55412;51.350;17.056;2022-12-20T13:18:01;4.60;66.90
68433;DHT22;55412;51.350;17.056;2022-12-20T13:21:23;4.60;66.60
68433;DHT22;55412;51.350;17.056;2022-12-20T13:27:13;4.50;66.60
68433;DHT22;55412;51.350;17.056;2022-12-20T13:38:08;4.40;66.90
68433;DHT22;55412;51.350;17.056;2022-12-20T13:41:34;4.40;66.70
68433;DHT22;55412;51.350;17.056;2022-12-20T13:46:59;4.40;66.60
68433;DHT22;55412;51.350;17.056;2022-12-20T13:49:37;4.40;67.00
68433;DHT22;55412;51.350;17.056;2022-12-20T13:52:26;4.40;67.00
68433;DHT22;55412;51.350;17.056;2022-12-20T13:54:59;4.40;66.50
68433;DHT22;55412;51.350;17.056;2022-12-20T13:57:38;4.40;66.70
68433;DHT22;55412;51.350;17.056;2022-12-20T14:00:14;4.40;66.60
68433;DHT22;55412;51.350;17.056;2022-12-20T14:02:43;4.50;66.70
68433;DHT22;55412;51.350;17.056;2022-12-20T14:05:22;4.50;66.70
68433;DHT22;55412;51.350;17.056;2022-12-20T14:08:06;4.50;66.60
68433;DHT22;55412;51.350;17.056;2022-12-20T14:10:34;4.50;66.70
68433;DHT22;55412;51.350;17.056;2022-12-20T14:13:01;4.50;66.60
68433;DHT22;55412;51.350;17.056;2022-12-20T14:15:34;4.40;66.40
68433;DHT22;55412;51.350;17.056;2022-12-20T14:18:05;4.30;66.80
68433;DHT22;55412;51.350;17.056;2022-12-20T14:20:40;4.20;66.90
68433;DHT22;55412;51.350;17.056;2022-12-20T14:23:15;4.10;67.10
68433;DHT22;55412;51.350;17.056;2022-12-20T14:25:47;4.10;67.30
68433;DHT22;55412;51.350;17.056;2022-12-20T14:34:11;3.80;68.70
68433;DHT22;55412;51.350;17.056;2022-12-20T14:36:44;3.70;68.70
68433;DHT22;55412;51.350;17.056;2022-12-20T14:39:28;3.70;68.90
68433;DHT22;55412;51.350;17.056;2022-12-20T14:42:16;3.70;69.10
68433;DHT22;55412;51.350;17.056;2022-12-20T14:44:44;3.60;69.20
68433;DHT22;55412;51.350;17.056;2022-12-20T14:47:27;3.50;69.40
68433;DHT22;55412;51.350;17.056;2022-12-20T14:49:58;3.50;69.70
68433;DHT22;55412;51.350;17.056;2022-12-20T14:52:36;3.40;69.90
68433;DHT22;55412;51.350;17.056;2022-12-20T14:57:50;3.30;70.50
68433;DHT22;55412;51.350;17.056;2022-12-20T15:08:32;3.10;71.10
68433;DHT22;55412;51.350;17.056;2022-12-20T15:13:41;3.00;71.50
68433;DHT22;55412;51.350;17.056;2022-12-20T15:16:29;3.00;71.80
68433;DHT22;55412;51.350;17.056;2022-12-20T15:18:56;2.90;71.90
68433;DHT22;55412;51.350;17.056;2022-12-20T15:21:35;2.90;72.00
68433;DHT22;55412;51.350;17.056;2022-12-20T15:24:09;2.90;71.90
68433;DHT22;55412;51.350;17.056;2022-12-20T15:26:38;3.00;71.80
68433;DHT22;55412;51.350;17.056;2022-12-20T15:29:04;3.00;71.70
68433;DHT22;55412;51.350;17.056;2022-12-20T15:31:32;3.00;71.80
68433;DHT22;55412;51.350;17.056;2022-12-20T15:34:03;3.00;71.60
68433;DHT22;55412;51.350;17.056;2022-12-20T15:36:38;3.00;71.70
68433;DHT22;55412;51.350;17.056;2022-12-20T15:39:04;3.00;71.80
68433;DHT22;55412;51.350;17.056;2022-12-20T15:41:32;3.00;71.80
68433;DHT22;55412;51.350;17.056;2022-12-20T15:44:04;3.10;71.90
68433;DHT22;55412;51.350;17.056;2022-12-20T15:46:31;3.10;71.60
68433;DHT22;55412;51.350;17.056;2022-12-20T15:48:58;3.10;71.60
68433;DHT22;55412;51.350;17.056;2022-12-20T15:51:32;3.00;71.40
68433;DHT22;55412;51.350;17.056;2022-12-20T15:54:01;3.00;71.40
68433;DHT22;55412;51.350;17.056;2022-12-20T15:56:29;3.00;71.50
68433;DHT22;55412;51.350;17.056;2022-12-20T15:58:56;3.00;71.60
68433;DHT22;55412;51.350;17.056;2022-12-20T16:01:30;2.90;71.90
68433;DHT22;55412;51.350;17.056;2022-12-20T16:04:00;2.90;72.00
68433;DHT22;55412;51.350;17.056;2022-12-20T16:06:26;2.80;72.10
68433;DHT22;55412;51.350;17.056;2022-12-20T16:08:52;2.80;72.30
68433;DHT22;55412;51.350;17.056;2022-12-20T16:11:22;2.80;72.30
68433;DHT22;55412;51.350;17.056;2022-12-20T16:13:50;2.70;72.50
68433;DHT22;55412;51.350;17.056;2022-12-20T16:16:18;2.70;72.70
68433;DHT22;55412;51.350;17.056;2022-12-20T16:18:46;2.60;72.70
68433;DHT22;55412;51.350;17.056;2022-12-20T16:21:43;2.60;72.90
68433;DHT22;55412;51.350;17.056;2022-12-20T16:24:14;2.60;73.00
68433;DHT22;55412;51.350;17.056;2022-12-20T16:26:42;2.50;73.20
68433;DHT22;55412;51.350;17.056;2022-12-20T16:29:08;2.50;73.40
68433;DHT22;55412;51.350;17.056;2022-12-20T16:31:36;2.50;73.30
68433;DHT22;55412;51.350;17.056;2022-12-20T16:34:08;2.40;73.40
68433;DHT22;55412;51.350;17.056;2022-12-20T16:36:38;2.40;73.40
68433;DHT22;55412;51.350;17.056;2022-12-20T16:39:04;2.40;73.40
68433;DHT22;55412;51.350;17.056;2022-12-20T16:41:31;2.40;73.50
68433;DHT22;55412;51.350;17.056;2022-12-20T16:44:00;2.40;73.80
68433;DHT22;55412;51.350;17.056;2022-12-20T16:46:29;2.40;73.80
68433;DHT22;55412;51.350;17.056;2022-12-20T16:48:56;2.40;73.70
68433;DHT22;55412;51.350;17.056;2022-12-20T16:54:23;2.30;73.70
68433;DHT22;55412;51.350;17.056;2022-12-20T16:56:50;2.30;73.90
68433;DHT22;55412;51.350;17.056;2022-12-20T16:59:20;2.40;73.70
68433;DHT22;55412;51.350;17.056;2022-12-20T17:01:48;2.40;73.60
68433;DHT22;55412;51.350;17.056;2022-12-20T17:04:20;2.40;73.60
68433;DHT22;55412;51.350;17.056;2022-12-20T17:06:46;2.50;73.40
68433;DHT22;55412;51.350;17.056;2022-12-20T17:09:13;2.50;73.40
68433;DHT22;55412;51.350;17.056;2022-12-20T17:11:41;2.50;73.10
68433;DHT22;55412;51.350;17.056;2022-12-20T17:14:11;2.50;73.20
68433;DHT22;55412;51.350;17.056;2022-12-20T17:16:37;2.60;73.00
68433;DHT22;55412;51.350;17.056;2022-12-20T17:19:04;2.60;73.00
68433;DHT22;55412;51.350;17.056;2022-12-20T17:21:37;2.60;72.80
68433;DHT22;55412;51.350;17.056;2022-12-20T17:24:17;2.70;72.70
68433;DHT22;55412;51.350;17.056;2022-12-20T17:26:45;2.60;72.60
68433;DHT22;55412;51.350;17.056;2022-12-20T17:29:11;2.70;72.60
68433;DHT22;55412;51.350;17.056;2022-12-20T17:31:39;2.70;72.70
68433;DHT22;55412;51.350;17.056;2022-12-20T17:34:17;2.70;72.40
68433;DHT22;55412;51.350;17.056;2022-12-20T17:36:44;2.70;72.40
68433;DHT22;55412;51.350;17.056;2022-12-20T17:39:12;2.70;72.50
68433;DHT22;55412;51.350;17.056;2022-12-20T17:41:38;2.70;72.60
68433;DHT22;55412;51.350;17.056;2022-12-20T17:44:10;2.60;72.70
68433;DHT22;55412;51.350;17.056;2022-12-20T17:46:44;2.60;73.00
68433;DHT22;55412;51.350;17.056;2022-12-20T17:49:10;2.60;73.00
68433;DHT22;55412;51.350;17.056;2022-12-20T17:51:37;2.60;73.20
68433;DHT22;55412;51.350;17.056;2022-12-20T17:54:03;2.60;73.00
68433;DHT22;55412;51.350;17.056;2022-12-20T17:56:32;2.60;73.20
68433;DHT22;55412;51.350;17.056;2022-12-20T17:59:00;2.60;73.20
68433;DHT22;55412;51.350;17.056;2022-12-20T18:01:31;2.60;73.20
68433;DHT22;55412;51.350;17.056;2022-12-20T18:04:01;2.60;73.00
68433;DHT22;55412;51.350;17.056;2022-12-20T18:06:31;2.60;73.20
68433;DHT22;55412;51.350;17.056;2022-12-20T18:08:59;2.50;73.20
68433;DHT22;55412;51.350;17.056;2022-12-20T18:11:27;2.60;73.30
68433;DHT22;55412;51.350;17.056;2022-12-20T18:13:57;2.60;73.40
68433;DHT22;55412;51.350;17.056;2022-12-20T18:16:26;2.60;73.50
68433;DHT22;55412;51.350;17.056;2022-12-20T18:18:54;2.60;73.70
68433;DHT22;55412;51.350;17.056;2022-12-20T18:21:22;2.60;73.50
68433;DHT22;55412;51.350;17.056;2022-12-20T18:23:49;2.60;73.40
68433;DHT22;55412;51.350;17.056;2022-12-20T18:28:51;2.60;73.70
68433;DHT22;55412;51.350;17.056;2022-12-20T18:31:22;2.60;74.00
68433;DHT22;55412;51.350;17.056;2022-12-20T18:33:53;2.50;74.30
68433;DHT22;55412;51.350;17.056;2022-12-20T18:36:27;2.50;74.40